createdAt,value
2023-02-14T00:01:45.548Z,10.45
2023-02-14T00:04:12.552Z,9.95
2023-02-14T00:06:42.539Z,10.32
2023-02-14T00:09:15.183Z,10.15
2023-02-14T00:11:42.001Z,9.82
2023-02-14T00:14:27.266Z,10.02
2023-02-14T00:16:56.053Z,9.77
2023-02-14T00:19:23.528Z,10.35
2023-02-14T00:21:52.345Z,10.13
2023-02-14T00:24:23.287Z,9.43
2023-02-14T00:26:50.159Z,10.00
2023-02-14T00:29:21.053Z,9.43
2023-02-14T00:31:47.886Z,9.07
2023-02-14T00:34:17.449Z,8.95
2023-02-14T00:36:47.231Z,8.82
2023-02-14T00:39:14.294Z,9.70
2023-02-14T00:41:43.796Z,9.23
2023-02-14T00:44:13.201Z,9.57
2023-02-14T00:46:45.448Z,10.45
2023-02-14T00:49:12.195Z,9.43
2023-02-14T00:51:42.556Z,8.82
2023-02-14T00:54:09.341Z,8.70
2023-02-14T00:56:38.492Z,10.13
2023-02-14T00:59:05.178Z,9.30
2023-02-14T01:01:31.821Z,9.35
2023-02-14T01:04:03.697Z,8.65
2023-02-14T01:06:35.753Z,9.45
2023-02-14T01:09:02.472Z,9.93
2023-02-14T01:11:31.415Z,8.82
2023-02-14T01:14:00.695Z,9.68
2023-02-14T01:16:30.247Z,9.25
2023-02-14T01:18:58.401Z,9.45
2023-02-14T01:21:28.902Z,8.88
2023-02-14T01:23:56.609Z,8.87
2023-02-14T01:26:25.883Z,9.18
2023-02-14T01:28:52.556Z,8.63
2023-02-14T01:31:24.422Z,8.45
2023-02-14T01:33:55.865Z,8.02
2023-02-14T01:36:29.049Z,8.05
2023-02-14T01:38:59.962Z,8.63
2023-02-14T01:41:31.263Z,8.18
2023-02-14T01:46:36.221Z,8.52
2023-02-14T01:49:10.554Z,7.97
2023-02-14T01:51:41.116Z,8.93
2023-02-14T01:54:07.756Z,8.57
2023-02-14T01:56:39.580Z,8.07
2023-02-14T01:59:09.903Z,8.60
2023-02-14T02:01:36.658Z,7.78
2023-02-14T02:04:08.270Z,8.32
2023-02-14T02:06:39.622Z,7.63
2023-02-14T02:09:10.852Z,8.00
2023-02-14T02:14:12.349Z,8.70
2023-02-14T02:16:56.775Z,7.53
2023-02-14T02:20:05.271Z,7.70
2023-02-14T02:22:51.383Z,7.55
2023-02-14T02:25:46.365Z,7.75
2023-02-14T02:28:38.430Z,7.35
2023-02-14T02:31:40.913Z,7.72
2023-02-14T02:34:28.959Z,7.55
2023-02-14T02:37:26.604Z,7.70
2023-02-14T02:40:07.742Z,7.70
2023-02-14T02:42:49.456Z,7.68
2023-02-14T02:46:03.328Z,8.10
2023-02-14T02:48:58.202Z,7.65
2023-02-14T02:51:53.605Z,7.78
2023-02-14T02:54:27.430Z,7.20
2023-02-14T02:56:58.740Z,6.53
2023-02-14T03:02:07.000Z,8.05
2023-02-14T03:04:53.440Z,7.50
2023-02-14T03:07:45.488Z,7.30
2023-02-14T03:10:26.221Z,7.53
2023-02-14T03:13:11.093Z,7.50
2023-02-14T03:15:56.890Z,7.35
2023-02-14T03:18:48.326Z,7.38
2023-02-14T03:24:24.646Z,7.53
2023-02-14T03:26:54.266Z,7.40
2023-02-14T03:29:38.856Z,7.60
2023-02-14T03:32:23.470Z,7.38
2023-02-14T03:35:04.221Z,6.75
2023-02-14T03:37:46.069Z,7.67
2023-02-14T03:40:17.741Z,6.93
2023-02-14T03:42:58.178Z,7.18
2023-02-14T03:45:38.052Z,7.25
2023-02-14T03:48:08.151Z,6.60
2023-02-14T03:50:35.002Z,6.63
2023-02-14T03:53:01.686Z,6.65
2023-02-14T03:55:33.179Z,7.03
2023-02-14T03:58:22.852Z,7.28
2023-02-14T04:00:55.691Z,7.28
2023-02-14T04:03:25.363Z,6.55
2023-02-14T04:05:52.557Z,7.03
2023-02-14T04:08:24.307Z,6.80
2023-02-14T04:10:53.897Z,7.60
2023-02-14T04:13:23.439Z,6.70
2023-02-14T04:15:50.286Z,7.10
2023-02-14T04:18:37.995Z,7.10
2023-02-14T04:21:07.754Z,6.93
2023-02-14T04:23:34.468Z,7.28
2023-02-14T04:26:07.026Z,7.05
2023-02-14T04:28:38.378Z,7.10
2023-02-14T04:31:07.719Z,6.72
2023-02-14T04:33:39.401Z,6.60
2023-02-14T04:36:06.488Z,6.50
2023-02-14T04:38:35.426Z,5.70
2023-02-14T04:41:04.461Z,6.90
2023-02-14T04:43:34.071Z,6.85
2023-02-14T04:46:03.436Z,6.55
2023-02-14T04:48:32.605Z,6.63
2023-02-14T04:51:02.046Z,6.00
2023-02-14T04:53:28.820Z,6.18
2023-02-14T04:55:57.738Z,6.45
2023-02-14T04:58:27.254Z,6.35
2023-02-14T05:00:56.141Z,6.68
2023-02-14T05:03:25.439Z,6.53
2023-02-14T05:05:54.234Z,6.75
2023-02-14T05:08:20.917Z,6.65
2023-02-14T05:10:49.716Z,6.18
2023-02-14T05:13:17.588Z,5.95
2023-02-14T05:15:47.736Z,6.53
2023-02-14T05:18:16.622Z,6.25
2023-02-14T05:20:45.672Z,6.25
2023-02-14T05:23:14.723Z,6.28
2023-02-14T05:25:41.474Z,6.45
2023-02-14T05:28:12.946Z,6.40
2023-02-14T05:30:42.199Z,6.03
2023-02-14T05:33:11.465Z,6.07
2023-02-14T05:35:40.262Z,6.55
2023-02-14T05:38:09.015Z,6.20
2023-02-14T05:40:35.690Z,5.80
2023-02-14T05:43:04.505Z,6.25
2023-02-14T05:45:35.831Z,6.28
2023-02-14T05:48:06.230Z,6.45
2023-02-14T05:50:35.142Z,5.20
2023-02-14T05:53:02.101Z,6.10
2023-02-14T05:55:31.185Z,6.07
2023-02-14T05:58:00.385Z,6.13
2023-02-14T06:00:30.166Z,6.15
2023-02-14T06:02:58.906Z,6.47
2023-02-14T06:05:25.594Z,5.95
2023-02-14T06:07:54.518Z,5.93
2023-02-14T06:10:24.838Z,6.20
2023-02-14T06:12:52.416Z,6.05
2023-02-14T06:15:19.287Z,6.40
2023-02-14T06:17:48.071Z,5.88
2023-02-14T06:20:16.948Z,6.18
2023-02-14T06:22:43.608Z,6.03
2023-02-14T06:25:12.446Z,6.30
2023-02-14T06:27:39.088Z,5.78
2023-02-14T06:30:09.073Z,6.20
2023-02-14T06:32:38.068Z,6.25
2023-02-14T06:35:08.555Z,5.53
2023-02-14T06:37:42.250Z,5.63
2023-02-14T06:40:10.147Z,6.07
2023-02-14T06:42:39.084Z,6.35
2023-02-14T06:45:06.280Z,5.80
2023-02-14T06:47:37.798Z,6.10
2023-02-14T06:50:05.272Z,6.05
2023-02-14T06:52:36.390Z,6.15
2023-02-14T06:55:05.814Z,5.80
2023-02-14T06:57:37.439Z,5.80
2023-02-14T07:00:04.531Z,5.85
2023-02-14T07:02:33.769Z,6.00
2023-02-14T07:05:03.067Z,5.63
2023-02-14T07:07:34.881Z,6.22
2023-02-14T07:10:01.777Z,6.00
2023-02-14T07:12:31.213Z,5.93
2023-02-14T07:15:00.020Z,14.32
2023-02-14T07:17:28.874Z,15.40
2023-02-14T07:19:59.380Z,13.05
2023-02-14T07:22:30.309Z,10.97
2023-02-14T07:24:57.085Z,10.85
2023-02-14T07:27:23.764Z,10.75
2023-02-14T07:29:52.603Z,12.45
2023-02-14T07:32:24.172Z,11.98
2023-02-14T07:34:54.292Z,11.20
2023-02-14T07:37:21.102Z,11.38
2023-02-14T07:39:49.888Z,10.30
2023-02-14T07:42:16.483Z,10.38
2023-02-14T07:44:45.293Z,9.88
2023-02-14T07:47:16.747Z,9.77
2023-02-14T07:49:45.515Z,10.85
2023-02-14T07:52:14.893Z,9.82
2023-02-14T07:55:00.076Z,10.10
2023-02-14T07:57:32.011Z,9.55
2023-02-14T08:00:03.477Z,9.82
2023-02-14T08:02:32.688Z,9.60
2023-02-14T08:05:01.780Z,10.00
2023-02-14T08:07:33.024Z,10.27
2023-02-14T08:10:01.013Z,10.48
2023-02-14T08:12:49.557Z,10.73
2023-02-14T08:15:35.019Z,9.77
2023-02-14T08:18:01.758Z,9.65
2023-02-14T08:20:30.521Z,10.05
2023-02-14T08:22:57.180Z,9.88
2023-02-14T08:25:24.001Z,8.88
2023-02-14T08:27:50.565Z,9.93
2023-02-14T08:30:17.368Z,9.60
2023-02-14T08:32:44.216Z,9.20
2023-02-14T08:35:13.145Z,9.75
2023-02-14T08:37:41.998Z,9.82
2023-02-14T08:40:09.162Z,9.25
2023-02-14T08:42:36.111Z,9.43
2023-02-14T08:45:05.378Z,9.63
2023-02-14T08:47:35.851Z,10.15
2023-02-14T08:50:03.351Z,8.67
2023-02-14T08:52:29.986Z,9.60
2023-02-14T08:55:01.899Z,9.10
2023-02-14T08:57:31.115Z,9.70
2023-02-14T09:00:00.464Z,8.88
2023-02-14T09:02:29.639Z,10.13
2023-02-14T09:04:58.479Z,8.75
2023-02-14T09:07:25.288Z,9.15
2023-02-14T09:09:52.882Z,8.80
2023-02-14T09:12:24.898Z,9.02
2023-02-14T09:14:51.672Z,9.60
2023-02-14T09:17:18.592Z,9.18
2023-02-14T09:19:47.900Z,9.05
2023-02-14T09:22:19.348Z,9.13
2023-02-14T09:24:48.182Z,8.45
2023-02-14T09:27:14.788Z,9.23
2023-02-14T09:29:41.519Z,9.13
2023-02-14T09:32:11.136Z,8.98
2023-02-14T09:34:41.009Z,8.75
2023-02-14T09:37:09.971Z,9.05
2023-02-14T09:39:37.252Z,8.85
2023-02-14T09:42:36.272Z,9.02
2023-02-14T09:45:15.293Z,8.65
2023-02-14T09:47:51.965Z,8.65
2023-02-14T09:50:26.609Z,8.32
2023-02-14T09:52:57.246Z,8.52
2023-02-14T09:55:24.033Z,9.80
2023-02-14T09:58:41.107Z,9.15
2023-02-14T10:01:15.716Z,9.68
2023-02-14T10:04:07.139Z,9.00
2023-02-14T10:06:47.655Z,9.35
2023-02-14T10:09:48.026Z,8.80
2023-02-14T10:13:04.152Z,9.23
2023-02-14T10:15:35.748Z,9.00
2023-02-14T10:18:14.186Z,9.40
2023-02-14T10:20:47.074Z,9.52
2023-02-14T10:23:36.103Z,9.65
2023-02-14T10:26:25.166Z,8.90
2023-02-14T10:28:56.515Z,9.55
2023-02-14T10:31:26.137Z,9.55
2023-02-14T10:33:57.858Z,9.65
2023-02-14T10:36:39.999Z,8.68
2023-02-14T10:39:37.582Z,8.77
2023-02-14T10:42:11.395Z,8.50
2023-02-14T10:45:12.583Z,9.07
2023-02-14T10:48:06.358Z,9.75
2023-02-14T10:50:40.898Z,9.50
2023-02-14T10:53:10.480Z,9.60
2023-02-14T10:55:57.090Z,10.02
2023-02-14T10:58:27.520Z,9.57
2023-02-14T11:01:17.494Z,9.20
2023-02-14T11:04:08.719Z,9.35
2023-02-14T11:06:37.645Z,9.43
2023-02-14T11:09:04.531Z,9.40
2023-02-14T11:11:38.167Z,9.60
2023-02-14T11:14:26.670Z,10.13
2023-02-14T11:16:54.348Z,9.32
2023-02-14T11:19:24.897Z,9.95
2023-02-14T11:21:52.330Z,8.73
2023-02-14T11:24:25.122Z,9.65
2023-02-14T11:26:53.101Z,8.57
2023-02-14T11:29:29.139Z,9.13
2023-02-14T11:31:59.119Z,9.30
2023-02-14T11:34:32.028Z,8.57
2023-02-14T11:36:58.816Z,9.35
2023-02-14T11:39:31.862Z,9.48
2023-02-14T11:42:04.193Z,8.90
2023-02-14T11:44:33.128Z,9.00
2023-02-14T11:47:43.099Z,9.25
2023-02-14T11:50:23.699Z,9.07
2023-02-14T11:52:57.127Z,8.93
2023-02-14T11:55:33.694Z,8.52
2023-02-14T11:58:01.298Z,9.23
2023-02-14T12:00:33.897Z,9.15
2023-02-14T12:03:04.777Z,9.32
2023-02-14T12:05:46.762Z,9.23
2023-02-14T12:08:13.571Z,8.43
2023-02-14T12:10:42.351Z,7.97
2023-02-14T12:13:08.907Z,8.85
2023-02-14T12:15:41.428Z,8.65
2023-02-14T12:18:24.900Z,8.15
2023-02-14T12:21:02.814Z,8.20
2023-02-14T12:24:07.450Z,8.15
2023-02-14T12:26:42.189Z,8.05
2023-02-14T12:29:16.719Z,8.18
2023-02-14T12:31:45.705Z,8.50
2023-02-14T12:34:12.965Z,7.85
2023-02-14T12:36:45.908Z,8.77
2023-02-14T12:39:38.224Z,8.18
2023-02-14T12:42:30.015Z,7.97
2023-02-14T12:45:06.124Z,7.65
2023-02-14T12:47:42.265Z,7.28
2023-02-14T12:50:42.871Z,8.70
2023-02-14T12:53:09.442Z,7.28
2023-02-14T12:56:08.531Z,7.93
2023-02-14T12:58:49.948Z,8.00
2023-02-14T13:01:36.758Z,8.15
2023-02-14T13:04:35.980Z,8.05
2023-02-14T13:07:37.751Z,7.68
2023-02-14T13:10:27.580Z,7.78
2023-02-14T13:13:04.898Z,8.95
2023-02-14T13:15:46.897Z,8.90
2023-02-14T13:18:19.661Z,8.23
2023-02-14T13:20:56.695Z,7.78
2023-02-14T13:23:50.107Z,8.85
2023-02-14T13:26:22.816Z,7.93
2023-02-14T13:29:10.353Z,8.30
2023-02-14T13:31:39.796Z,7.72
2023-02-14T13:34:18.478Z,8.35
2023-02-14T13:36:50.824Z,8.95
2023-02-14T13:39:38.332Z,7.30
2023-02-14T13:42:08.277Z,8.18
2023-02-14T13:44:50.609Z,7.47
2023-02-14T13:47:24.001Z,7.93
2023-02-14T13:49:55.436Z,7.80
2023-02-14T13:52:48.016Z,7.78
2023-02-14T13:55:25.282Z,7.88
2023-02-14T13:58:21.853Z,8.32
2023-02-14T14:00:54.884Z,7.88
2023-02-14T14:03:27.726Z,8.20
2023-02-14T14:06:03.832Z,8.05
2023-02-14T14:08:31.409Z,7.20
2023-02-14T14:10:59.716Z,7.78
2023-02-14T14:13:41.937Z,7.53
2023-02-14T14:16:26.813Z,7.97
2023-02-14T14:19:21.932Z,7.70
2023-02-14T14:22:04.788Z,7.57
2023-02-14T14:24:34.597Z,8.00
2023-02-14T14:27:01.191Z,7.80
2023-02-14T14:29:33.702Z,7.70
2023-02-14T14:32:27.612Z,8.20
2023-02-14T14:34:55.203Z,7.78
2023-02-14T14:37:31.398Z,8.07
2023-02-14T14:40:01.788Z,7.47
2023-02-14T14:42:49.254Z,7.83
2023-02-14T14:45:24.283Z,8.48
2023-02-14T14:47:54.121Z,7.30
2023-02-14T14:50:31.244Z,7.47
2023-02-14T14:53:03.025Z,7.45
2023-02-14T14:55:34.576Z,7.15
2023-02-14T14:58:05.409Z,7.47
2023-02-14T15:00:36.314Z,7.65
2023-02-14T15:03:12.152Z,7.88
2023-02-14T15:05:45.390Z,7.22
2023-02-14T15:08:33.415Z,6.80
2023-02-14T15:11:39.026Z,7.90
2023-02-14T15:14:10.358Z,7.38
2023-02-14T15:19:26.755Z,7.05
2023-02-14T15:21:53.349Z,7.03
2023-02-14T15:24:20.078Z,6.85
2023-02-14T15:26:50.979Z,7.65
2023-02-14T15:29:44.542Z,7.15
2023-02-14T15:32:11.382Z,7.40
2023-02-14T15:34:40.507Z,7.10
2023-02-14T15:37:07.305Z,7.30
2023-02-14T15:39:41.543Z,7.10
2023-02-14T15:42:29.571Z,6.85
2023-02-14T15:45:28.201Z,7.13
2023-02-14T15:47:58.816Z,7.55
2023-02-14T15:50:27.907Z,8.10
2023-02-14T15:52:56.491Z,6.80
2023-02-14T15:55:26.297Z,7.40
2023-02-14T15:58:02.180Z,7.53
2023-02-14T16:00:31.664Z,8.15
2023-02-14T16:03:03.871Z,8.05
2023-02-14T16:05:32.768Z,8.23
2023-02-14T16:08:06.325Z,7.53
2023-02-14T16:10:39.703Z,7.55
2023-02-14T16:13:22.200Z,8.20
2023-02-14T16:16:10.990Z,7.78
2023-02-14T16:18:37.788Z,7.57
2023-02-14T16:21:11.261Z,7.82
2023-02-14T16:23:38.074Z,8.23
2023-02-14T16:26:11.407Z,8.45
2023-02-14T16:28:38.652Z,8.38
2023-02-14T16:31:10.975Z,8.65
2023-02-14T16:33:41.586Z,8.38
2023-02-14T16:36:22.846Z,9.33
2023-02-14T16:41:28.150Z,10.48
2023-02-14T16:44:02.539Z,11.82
2023-02-14T16:46:32.721Z,12.18
2023-02-14T16:49:02.418Z,12.25
2023-02-14T16:51:31.759Z,12.60
2023-02-14T16:54:00.453Z,12.80
2023-02-14T16:56:29.739Z,12.30
2023-02-14T16:58:59.488Z,14.65
2023-02-14T17:01:28.269Z,14.68
2023-02-14T17:03:55.634Z,14.25
2023-02-14T17:06:28.809Z,14.90
2023-02-14T17:08:59.219Z,15.18
2023-02-14T17:11:26.464Z,16.00
2023-02-14T17:13:55.970Z,17.52
2023-02-14T17:16:24.879Z,17.13
2023-02-14T17:18:57.259Z,17.33
2023-02-14T17:21:24.084Z,19.63
2023-02-14T17:23:57.224Z,28.73
2023-02-14T17:26:26.021Z,34.97
2023-02-14T17:28:52.744Z,41.38
2023-02-14T17:31:20.531Z,43.38
2023-02-14T17:33:52.044Z,45.78
2023-02-14T17:36:23.361Z,48.10
2023-02-14T17:41:23.009Z,50.25
2023-02-14T17:43:50.034Z,49.75
2023-02-14T17:46:19.952Z,49.45
2023-02-14T17:48:46.966Z,48.95
2023-02-14T17:51:17.771Z,48.90
2023-02-14T17:53:47.459Z,50.53
2023-02-14T17:56:24.484Z,48.53
2023-02-14T17:58:55.213Z,48.58
2023-02-14T18:01:25.390Z,48.80
2023-02-14T18:03:53.598Z,48.85
2023-02-14T18:06:22.741Z,49.10
2023-02-14T18:08:56.730Z,52.22
2023-02-14T18:11:27.252Z,47.03
2023-02-14T18:14:01.761Z,46.80
2023-02-14T18:16:33.233Z,45.50
2023-02-14T18:19:04.050Z,45.72
2023-02-14T18:21:35.685Z,43.42
2023-02-14T18:24:06.274Z,44.28
2023-02-14T18:26:37.617Z,41.73
2023-02-14T18:29:06.781Z,41.30
2023-02-14T18:31:37.788Z,42.33
2023-02-14T18:34:09.150Z,42.45
2023-02-14T18:36:37.003Z,42.30
2023-02-14T18:39:03.932Z,39.78
2023-02-14T18:41:33.063Z,43.50
2023-02-14T18:44:06.958Z,45.85
2023-02-14T18:46:36.287Z,45.42
2023-02-14T18:49:08.416Z,42.67
2023-02-14T18:51:39.381Z,41.17
2023-02-14T18:54:09.409Z,40.22
2023-02-14T18:56:41.327Z,39.53
2023-02-14T18:59:13.681Z,39.75
2023-02-14T19:01:45.058Z,39.20
2023-02-14T19:04:17.083Z,41.05
2023-02-14T19:06:45.891Z,38.00
2023-02-14T19:09:17.540Z,36.13
2023-02-14T19:11:44.448Z,37.05
2023-02-14T19:14:13.308Z,37.83
2023-02-14T19:16:50.262Z,36.47
2023-02-14T19:19:23.298Z,35.97
2023-02-14T19:21:53.200Z,35.45
2023-02-14T19:24:25.619Z,33.47
2023-02-14T19:26:57.786Z,36.55
2023-02-14T19:29:24.444Z,33.40
2023-02-14T19:31:56.146Z,34.17
2023-02-14T19:34:47.054Z,33.95
2023-02-14T19:37:13.802Z,32.43
2023-02-14T19:39:42.709Z,33.40
2023-02-14T19:42:11.847Z,32.35
2023-02-14T19:44:41.453Z,32.92
2023-02-14T19:47:25.590Z,30.88
2023-02-14T19:49:58.297Z,30.83
2023-02-14T19:52:27.246Z,30.20
2023-02-14T19:54:57.466Z,32.95
2023-02-14T19:57:29.158Z,30.30
2023-02-14T19:59:58.212Z,30.70
2023-02-14T20:02:25.016Z,30.52
2023-02-14T20:04:53.568Z,28.58
2023-02-14T20:07:20.337Z,29.75
2023-02-14T20:09:47.129Z,29.42
2023-02-14T20:12:18.952Z,29.80
2023-02-14T20:14:51.806Z,29.15
2023-02-14T20:17:21.106Z,28.63
2023-02-14T20:19:49.902Z,29.48
2023-02-14T20:22:23.287Z,28.33
2023-02-14T20:24:50.084Z,27.63
2023-02-14T20:27:20.046Z,28.48
2023-02-14T20:29:46.793Z,26.80
2023-02-14T20:32:15.223Z,27.83
2023-02-14T20:34:44.694Z,28.33
2023-02-14T20:37:14.678Z,26.73
2023-02-14T20:39:47.006Z,26.85
2023-02-14T20:42:13.699Z,26.48
2023-02-14T20:44:46.506Z,26.02
2023-02-14T20:47:14.212Z,27.23
2023-02-14T20:49:45.813Z,26.40
2023-02-14T20:52:18.041Z,25.98
2023-02-14T20:54:44.834Z,27.90
2023-02-14T20:57:14.328Z,29.02
2023-02-14T20:59:44.747Z,28.83
2023-02-14T21:02:13.828Z,29.27
2023-02-14T21:04:42.635Z,29.48
2023-02-14T21:07:12.629Z,30.42
2023-02-14T21:09:39.444Z,29.38
2023-02-14T21:12:09.253Z,28.55
2023-02-14T21:14:38.586Z,29.95
2023-02-14T21:17:08.434Z,29.17
2023-02-14T21:19:37.403Z,29.10
2023-02-14T21:22:06.360Z,29.60
2023-02-14T21:24:38.746Z,28.27
2023-02-14T21:27:05.455Z,27.92
2023-02-14T21:29:34.236Z,29.63
2023-02-14T21:32:03.911Z,28.08
2023-02-14T21:34:33.081Z,27.17
2023-02-14T21:36:59.855Z,27.17
2023-02-14T21:39:27.925Z,27.77
2023-02-14T21:41:54.852Z,30.95
2023-02-14T21:44:41.452Z,31.25
2023-02-14T21:47:11.128Z,30.15
2023-02-14T21:49:56.477Z,28.23
2023-02-14T21:52:23.323Z,29.95
2023-02-14T21:54:52.731Z,26.83
2023-02-14T21:58:19.574Z,25.83
2023-02-14T22:00:51.085Z,25.83
2023-02-14T22:03:23.459Z,24.63
2023-02-14T22:05:52.423Z,24.83
2023-02-14T22:08:21.808Z,23.05
2023-02-14T22:10:51.100Z,22.30
2023-02-14T22:13:17.712Z,21.42
2023-02-14T22:15:49.094Z,21.20
2023-02-14T22:18:17.891Z,21.42
2023-02-14T22:20:44.618Z,20.80
2023-02-14T22:23:13.630Z,21.80
2023-02-14T22:25:43.475Z,20.33
2023-02-14T22:28:12.516Z,18.67
2023-02-14T22:30:43.987Z,19.73
2023-02-14T22:33:19.069Z,19.58
2023-02-14T22:35:46.007Z,19.10
2023-02-14T22:38:15.757Z,18.80
2023-02-14T22:40:47.733Z,18.45
2023-02-14T22:43:17.431Z,19.40
2023-02-14T22:45:49.393Z,19.52
2023-02-14T22:48:20.640Z,20.40
2023-02-14T22:53:14.125Z,17.55
2023-02-14T22:55:40.913Z,17.73
2023-02-14T22:58:08.019Z,18.25
2023-02-14T23:00:36.995Z,17.98
2023-02-14T23:03:06.879Z,18.00
2023-02-14T23:05:36.393Z,17.58
2023-02-14T23:08:05.288Z,17.02
2023-02-14T23:10:34.331Z,16.25
2023-02-14T23:13:19.612Z,16.52
2023-02-14T23:16:04.964Z,16.85
2023-02-14T23:18:50.212Z,17.00
2023-02-14T23:21:35.532Z,16.17
2023-02-14T23:24:04.628Z,16.70
2023-02-14T23:26:33.437Z,15.90
2023-02-14T23:29:02.376Z,16.00
2023-02-14T23:31:31.292Z,16.48
2023-02-14T23:34:01.066Z,16.35
2023-02-14T23:36:27.840Z,16.75
2023-02-14T23:38:57.624Z,16.38
2023-02-14T23:41:42.759Z,15.70
2023-02-14T23:44:11.599Z,15.73
2023-02-14T23:46:40.425Z,16.02
2023-02-14T23:49:07.192Z,15.75
2023-02-14T23:51:34.629Z,16.40
2023-02-14T23:54:01.366Z,14.32
2023-02-14T23:56:28.413Z,16.05
2023-02-14T23:58:55.170Z,15.25
